Time;durP1;ratioP1;P1;durP2;ratioP2;P2;SDS_P1;SDS_P2;PMS_P1;PMS_P2;Temp;Humidity;BMP_temperature;BMP_pressure;BME280_temperature;BME280_humidity;BME280_pressure;Samples;Min_cycle;Max_cycle;Signal;HPM_P1;HPM_P2
2023/09/22 00:00:20;;;;;;;0.00;0.00;;;20.90;45.50;;;;;;5054917;28;20214;-52
2023/09/22 00:02:50;;;;;;;0.00;0.00;;;20.80;45.50;;;;;;5057572;28;20191;-55
2023/09/22 00:05:23;;;;;;;0.00;0.00;;;20.90;45.50;;;;;;5057811;28;20202;-54
2023/09/22 00:07:54;;;;;;;0.00;0.00;;;20.90;45.40;;;;;;5057856;28;20311;-54
2023/09/22 00:10:26;;;;;;;0.00;0.00;;;20.90;45.50;;;;;;5057416;28;20269;-51
2023/09/22 00:12:57;;;;;;;0.00;0.00;;;20.90;45.50;;;;;;5057395;28;20191;-55
2023/09/22 00:15:29;;;;;;;0.00;0.00;;;20.90;45.60;;;;;;5056827;28;20183;-57
2023/09/22 00:17:59;;;;;;;0.00;0.00;;;20.90;45.50;;;;;;5056811;28;20310;-58
2023/09/22 00:20:30;;;;;;;0.00;0.00;;;20.90;45.50;;;;;;5043437;28;20215;-57
2023/09/22 00:23:00;;;;;;;0.00;0.00;;;20.90;45.40;;;;;;5057528;28;20195;-54
2023/09/22 00:25:33;;;;;;;0.00;0.00;;;20.90;45.40;;;;;;5057297;28;20195;-56
2023/09/22 00:28:04;;;;;;;0.00;0.00;;;20.90;45.30;;;;;;5056960;28;20191;-57
2023/09/22 00:30:35;;;;;;;0.00;0.00;;;20.90;45.30;;;;;;5056793;28;20687;-55
2023/09/22 00:33:05;;;;;;;0.00;0.00;;;20.90;45.30;;;;;;5056612;28;20245;-55
2023/09/22 00:35:36;;;;;;;0.10;0.10;;;20.90;45.30;;;;;;5057604;28;20207;-56
2023/09/22 00:38:08;;;;;;;0.00;0.00;;;20.90;45.30;;;;;;5057624;28;20677;-54
2023/09/22 00:40:40;;;;;;;0.00;0.00;;;20.90;45.30;;;;;;5057891;28;20683;-55
2023/09/22 00:43:12;;;;;;;0.10;0.10;;;20.90;45.30;;;;;;5057486;28;20199;-56
2023/09/22 00:45:46;;;;;;;0.00;0.00;;;20.80;45.20;;;;;;5057465;28;20230;-54
2023/09/22 00:48:24;;;;;;;0.00;0.00;;;20.80;45.20;;;;;;5057505;28;20574;-53
2023/09/22 00:50:56;;;;;;;0.00;0.00;;;20.80;45.20;;;;;;5057575;28;20207;-53
2023/09/22 00:53:27;;;;;;;0.00;0.00;;;20.80;45.20;;;;;;5057623;28;20226;-57
2023/09/22 00:56:01;;;;;;;0.00;0.00;;;20.80;45.20;;;;;;5054038;28;20194;-56
2023/09/22 00:58:32;;;;;;;0.00;0.00;;;20.90;45.30;;;;;;5055775;28;20223;-56
2023/09/22 01:01:02;;;;;;;0.00;0.00;;;20.80;45.20;;;;;;5056536;28;20215;-55
2023/09/22 01:03:33;;;;;;;0.10;0.10;;;20.80;45.20;;;;;;5057118;28;20659;-54
2023/09/22 01:06:04;;;;;;;0.00;0.00;;;20.80;45.20;;;;;;5057465;28;20206;-56
2023/09/22 01:08:35;;;;;;;0.00;0.00;;;20.80;45.20;;;;;;5055596;28;20768;-56
2023/09/22 01:11:08;;;;;;;0.00;0.00;;;20.80;45.20;;;;;;5053895;28;20235;-56
2023/09/22 01:13:38;;;;;;;0.00;0.00;;;20.80;45.20;;;;;;5053020;28;20194;-56
2023/09/22 01:16:09;;;;;;;0.00;0.00;;;20.80;45.30;;;;;;5053896;28;20698;-55
2023/09/22 01:18:40;;;;;;;0.00;0.00;;;20.80;45.30;;;;;;5054188;28;20227;-58
2023/09/22 01:21:10;;;;;;;0.00;0.00;;;20.80;45.30;;;;;;5053097;28;20234;-58
2023/09/22 01:23:44;;;;;;;0.03;0.03;;;20.80;45.30;;;;;;5053145;28;20203;-57
2023/09/22 01:26:15;;;;;;;0.00;0.00;;;20.80;45.30;;;;;;5052652;28;20188;-57
2023/09/22 01:28:45;;;;;;;0.00;0.00;;;20.80;45.30;;;;;;5053240;28;20652;-57
2023/09/22 01:31:16;;;;;;;0.00;0.00;;;20.80;45.30;;;;;;5052885;28;20224;-57
2023/09/22 01:33:47;;;;;;;0.00;0.00;;;20.70;45.30;;;;;;5053397;28;20196;-57
2023/09/22 01:36:17;;;;;;;0.00;0.00;;;20.70;45.20;;;;;;5053594;28;20200;-58
2023/09/22 01:38:50;;;;;;;0.00;0.00;;;20.70;45.20;;;;;;5053291;28;20249;-58
2023/09/22 01:41:21;;;;;;;0.00;0.00;;;20.70;45.20;;;;;;5053112;28;20214;-57
2023/09/22 01:43:52;;;;;;;0.10;0.10;;;20.80;45.30;;;;;;5052184;28;20196;-57
2023/09/22 01:46:24;;;;;;;0.00;0.00;;;20.70;45.30;;;;;;5052984;28;20223;-58
2023/09/22 01:48:55;;;;;;;0.00;0.00;;;20.70;45.30;;;;;;5053181;28;20613;-57
2023/09/22 01:51:26;;;;;;;0.00;0.00;;;20.70;45.20;;;;;;5053026;28;20211;-57
2023/09/22 01:53:58;;;;;;;0.00;0.00;;;20.70;45.30;;;;;;5052558;28;20187;-58
2023/09/22 01:56:29;;;;;;;0.00;0.00;;;20.70;45.30;;;;;;5052742;28;20195;-58
2023/09/22 01:58:59;;;;;;;0.03;0.03;;;20.70;45.30;;;;;;5052254;28;20226;-57
2023/09/22 02:01:30;;;;;;;0.00;0.00;;;20.70;45.30;;;;;;5053534;28;20218;-58
2023/09/22 02:04:01;;;;;;;0.00;0.00;;;20.70;45.40;;;;;;5052998;28;20206;-57
2023/09/22 02:06:31;;;;;;;0.08;0.08;;;20.70;45.40;;;;;;5053232;28;20219;-59
2023/09/22 02:09:04;;;;;;;0.00;0.00;;;20.70;45.40;;;;;;5052744;28;20195;-58
2023/09/22 02:11:35;;;;;;;0.00;0.00;;;20.70;45.40;;;;;;5051869;28;20215;-57
2023/09/22 02:14:07;;;;;;;0.00;0.00;;;20.70;45.40;;;;;;5053410;28;20191;-58
2023/09/22 02:16:36;;;;;;;0.00;0.00;;;20.70;45.40;;;;;;5052085;28;20187;-57
2023/09/22 02:19:07;;;;;;;0.08;0.08;;;20.70;45.50;;;;;;5053217;28;20199;-58
2023/09/22 02:21:37;;;;;;;0.10;0.10;;;20.60;45.40;;;;;;5049522;28;20219;-58
2023/09/22 02:24:10;;;;;;;0.10;0.10;;;20.60;45.40;;;;;;5051812;28;20210;-58
2023/09/22 02:26:41;;;;;;;0.00;0.00;;;20.60;45.40;;;;;;5052100;28;20558;-57
2023/09/22 02:29:12;;;;;;;0.00;0.00;;;20.60;45.40;;;;;;5052265;28;20656;-58
2023/09/22 02:31:42;;;;;;;0.10;0.10;;;20.60;45.40;;;;;;5052750;28;20215;-58
2023/09/22 02:34:13;;;;;;;0.00;0.00;;;20.60;45.50;;;;;;5051707;28;20196;-58
2023/09/22 02:36:44;;;;;;;0.00;0.00;;;20.60;45.50;;;;;;5052504;28;20196;-58
2023/09/22 02:39:17;;;;;;;0.00;0.00;;;20.60;45.50;;;;;;5051924;28;20204;-58
2023/09/22 02:41:47;;;;;;;0.00;0.00;;;20.60;45.50;;;;;;5045747;28;20258;-58
2023/09/22 02:44:18;;;;;;;0.00;0.00;;;20.60;45.60;;;;;;5052237;28;20196;-58
2023/09/22 02:46:48;;;;;;;0.00;0.00;;;20.60;45.60;;;;;;5052282;28;20582;-57
2023/09/22 02:49:19;;;;;;;0.00;0.00;;;20.60;45.60;;;;;;5051644;28;20199;-57
2023/09/22 02:51:50;;;;;;;0.00;0.00;;;20.50;45.60;;;;;;5052088;28;20219;-58
2023/09/22 02:54:22;;;;;;;0.10;0.10;;;20.50;45.60;;;;;;5052059;28;20203;-58
2023/09/22 02:56:53;;;;;;;0.00;0.00;;;20.50;45.70;;;;;;5051387;28;20195;-58
2023/09/22 02:59:23;;;;;;;0.00;0.00;;;20.50;45.60;;;;;;5052328;28;20543;-58
2023/09/22 03:01:54;;;;;;;0.00;0.00;;;20.50;45.60;;;;;;5051599;28;20718;-58
2023/09/22 03:04:25;;;;;;;0.00;0.00;;;20.50;45.60;;;;;;5052274;28;20241;-58
2023/09/22 03:06:56;;;;;;;0.00;0.00;;;20.50;45.60;;;;;;5050919;28;20215;-58
2023/09/22 03:09:28;;;;;;;0.05;0.05;;;20.50;45.60;;;;;;5051911;28;20191;-58
2023/09/22 03:11:59;;;;;;;0.10;0.10;;;20.50;45.70;;;;;;5050335;28;20273;-58
2023/09/22 03:14:29;;;;;;;0.08;0.08;;;20.50;45.70;;;;;;5051755;28;20206;-58
2023/09/22 03:17:01;;;;;;;0.10;0.10;;;20.50;45.70;;;;;;5051437;28;20194;-58
2023/09/22 03:19:32;;;;;;;0.00;0.00;;;20.50;45.70;;;;;;5051466;28;20207;-58
2023/09/22 03:22:03;;;;;;;0.10;0.10;;;20.40;45.60;;;;;;5051739;28;20261;-58
2023/09/22 03:24:35;;;;;;;0.00;0.00;;;20.40;45.60;;;;;;5052476;28;20648;-58
2023/09/22 03:27:07;;;;;;;0.00;0.00;;;20.40;45.70;;;;;;5051107;28;20610;-58
2023/09/22 03:29:38;;;;;;;0.00;0.00;;;20.40;45.70;;;;;;5051534;28;20201;-58
2023/09/22 03:32:08;;;;;;;0.00;0.00;;;20.40;45.70;;;;;;5051072;28;20215;-58
2023/09/22 03:34:39;;;;;;;0.00;0.00;;;20.40;45.70;;;;;;5051202;28;20196;-58
2023/09/22 03:37:10;;;;;;;0.00;0.00;;;20.40;45.80;;;;;;5051698;28;20539;-58
2023/09/22 03:39:42;;;;;;;0.00;0.00;;;20.40;45.80;;;;;;5051298;28;20604;-58
2023/09/22 03:42:13;;;;;;;0.00;0.00;;;20.40;45.80;;;;;;5050729;28;20234;-58
2023/09/22 03:44:44;;;;;;;0.10;0.10;;;20.40;45.80;;;;;;5051481;28;20196;-58
2023/09/22 03:47:15;;;;;;;0.00;0.00;;;20.40;45.80;;;;;;5048725;28;20195;-58
2023/09/22 03:49:45;;;;;;;0.00;0.00;;;20.30;45.70;;;;;;5051180;28;20199;-58
2023/09/22 03:52:16;;;;;;;0.00;0.00;;;20.40;45.80;;;;;;5051285;28;20570;-58
2023/09/22 03:54:49;;;;;;;0.08;0.08;;;20.30;45.70;;;;;;5051306;28;20191;-58
2023/09/22 03:57:19;;;;;;;0.00;0.00;;;20.30;45.80;;;;;;5050860;28;20531;-58
2023/09/22 03:59:50;;;;;;;0.00;0.00;;;20.30;45.70;;;;;;5051503;28;20682;-58
2023/09/22 04:02:20;;;;;;;0.00;0.00;;;20.30;45.70;;;;;;5050892;28;20269;-58
2023/09/22 04:04:52;;;;;;;0.00;0.00;;;20.30;45.70;;;;;;5048063;28;20195;-58
2023/09/22 04:07:22;;;;;;;0.00;0.00;;;20.30;45.80;;;;;;5051300;28;20204;-58
2023/09/22 04:09:56;;;;;;;0.00;0.00;;;20.30;45.80;;;;;;5050695;28;20565;-57
2023/09/22 04:12:27;;;;;;;0.00;0.00;;;20.30;45.80;;;;;;5048300;28;20214;-58
2023/09/22 04:14:57;;;;;;;0.00;0.00;;;20.30;45.80;;;;;;5050713;28;20234;-58
2023/09/22 04:17:28;;;;;;;0.00;0.00;;;20.30;45.90;;;;;;5049713;28;20198;-58
2023/09/22 04:19:58;;;;;;;0.00;0.00;;;20.30;45.90;;;;;;5050848;28;20563;-58
2023/09/22 04:22:30;;;;;;;0.00;0.00;;;20.30;45.90;;;;;;5050024;28;20192;-58
2023/09/22 04:25:10;;;;;;;0.00;0.00;;;20.30;46.00;;;;;;5050907;28;20206;-58
2023/09/22 04:27:43;;;;;;;0.00;0.00;;;20.30;45.90;;;;;;5051208;28;20210;-58
2023/09/22 04:30:15;;;;;;;0.00;0.00;;;20.30;45.90;;;;;;5050627;28;20570;-58
2023/09/22 04:32:47;;;;;;;0.00;0.00;;;20.20;45.90;;;;;;5050304;28;20199;-58
2023/09/22 04:35:18;;;;;;;0.00;0.00;;;20.30;45.90;;;;;;5049806;28;20440;-58
2023/09/22 04:37:49;;;;;;;0.00;0.00;;;20.20;45.90;;;;;;5050407;28;20215;-58
2023/09/22 04:40:29;;;;;;;0.10;0.10;;;20.20;45.90;;;;;;5050022;28;20299;-58
2023/09/22 04:43:00;;;;;;;0.00;0.00;;;20.20;45.90;;;;;;5050850;28;20191;-58
2023/09/22 04:45:31;;;;;;;0.00;0.00;;;20.20;45.90;;;;;;5053885;28;20196;-58
2023/09/22 04:48:04;;;;;;;0.00;0.00;;;20.20;45.90;;;;;;5053767;28;20282;-58
2023/09/22 04:50:35;;;;;;;0.00;0.00;;;20.20;45.90;;;;;;5054194;28;20245;-58
2023/09/22 04:53:06;;;;;;;0.00;0.00;;;20.20;45.90;;;;;;5054471;28;20196;-58
2023/09/22 04:55:38;;;;;;;0.00;0.00;;;20.20;46.00;;;;;;5053333;28;20227;-58
2023/09/22 04:58:09;;;;;;;0.00;0.00;;;20.10;45.90;;;;;;5053606;28;20227;-58
2023/09/22 05:00:40;;;;;;;0.10;0.10;;;20.10;45.90;;;;;;5054170;28;20219;-58
2023/09/22 05:03:11;;;;;;;0.00;0.00;;;20.10;46.00;;;;;;5054465;28;20624;-58
2023/09/22 05:05:42;;;;;;;0.00;0.00;;;20.10;46.00;;;;;;5055994;28;20199;-58
2023/09/22 05:08:12;;;;;;;0.00;0.00;;;20.10;46.00;;;;;;5053413;28;20203;-58
2023/09/22 05:10:50;;;;;;;0.00;0.00;;;20.10;46.00;;;;;;5053665;28;20694;-58
2023/09/22 05:13:20;;;;;;;0.05;0.05;;;20.10;46.00;;;;;;5054469;28;20218;-58
2023/09/22 05:15:51;;;;;;;0.00;0.00;;;20.10;45.90;;;;;;5054032;28;20195;-58
2023/09/22 05:18:23;;;;;;;0.00;0.00;;;20.10;45.90;;;;;;5054313;28;20227;-58
2023/09/22 05:20:54;;;;;;;0.10;0.10;;;20.10;46.00;;;;;;5054796;28;20254;-58
2023/09/22 05:23:24;;;;;;;0.10;0.10;;;20.10;46.00;;;;;;5054269;28;20206;-58
2023/09/22 05:25:57;;;;;;;0.10;0.10;;;20.10;46.00;;;;;;5053591;28;20577;-58
2023/09/22 05:28:27;;;;;;;0.00;0.00;;;20.00;46.00;;;;;;5052210;28;20199;-58
2023/09/22 05:30:58;;;;;;;0.00;0.00;;;20.10;46.10;;;;;;5053026;28;20215;-58
2023/09/22 05:33:29;;;;;;;0.03;0.03;;;20.00;46.00;;;;;;5053129;28;20199;-58
2023/09/22 05:36:01;;;;;;;0.10;0.10;;;20.00;46.00;;;;;;5053584;28;20673;-58
2023/09/22 05:38:32;;;;;;;0.00;0.00;;;20.10;46.10;;;;;;5053684;28;20219;-58
2023/09/22 05:41:04;;;;;;;0.10;0.10;;;20.00;46.00;;;;;;5048086;28;20305;-58
2023/09/22 05:43:35;;;;;;;0.03;0.03;;;20.00;46.10;;;;;;5054202;28;20199;-58
2023/09/22 05:46:06;;;;;;;0.00;0.00;;;20.00;46.10;;;;;;5052779;28;20199;-58
2023/09/22 05:48:36;;;;;;;0.03;0.03;;;20.00;46.10;;;;;;5053549;28;20241;-57
2023/09/22 05:51:07;;;;;;;0.00;0.00;;;20.00;46.10;;;;;;5052612;28;20214;-58
2023/09/22 05:53:38;;;;;;;0.00;0.00;;;20.00;46.20;;;;;;5053542;28;20198;-58
2023/09/22 05:56:12;;;;;;;0.10;0.10;;;19.90;46.10;;;;;;5051532;28;20202;-58
2023/09/22 05:58:44;;;;;;;0.10;0.10;;;19.90;46.00;;;;;;5052491;28;20759;-58
2023/09/22 06:01:15;;;;;;;0.08;0.08;;;19.90;46.00;;;;;;5052441;28;20234;-58
2023/09/22 06:03:47;;;;;;;0.00;0.00;;;19.90;46.00;;;;;;5052701;28;20651;-57
2023/09/22 06:06:19;;;;;;;0.00;0.00;;;19.90;46.00;;;;;;5052635;28;20230;-58
2023/09/22 06:08:50;;;;;;;0.00;0.00;;;19.90;46.00;;;;;;5052280;28;20212;-58
2023/09/22 06:11:22;;;;;;;0.00;0.00;;;19.90;46.10;;;;;;5052983;28;20223;-58
2023/09/22 06:13:53;;;;;;;0.00;0.00;;;19.90;46.10;;;;;;5052972;28;20187;-58
2023/09/22 06:16:25;;;;;;;0.00;0.00;;;19.90;46.10;;;;;;5052740;28;20199;-58
2023/09/22 06:18:56;;;;;;;0.10;0.10;;;19.80;46.10;;;;;;5051761;28;20562;-58
2023/09/22 06:21:26;;;;;;;0.10;0.10;;;19.80;46.00;;;;;;5051368;28;20223;-58
2023/09/22 06:23:57;;;;;;;0.00;0.00;;;19.80;46.10;;;;;;5051835;28;20484;-58
2023/09/22 06:26:30;;;;;;;0.00;0.00;;;19.80;46.10;;;;;;5052913;28;20199;-57
2023/09/22 06:29:00;;;;;;;0.10;0.10;;;19.80;46.20;;;;;;5052002;28;20192;-58
2023/09/22 06:31:31;;;;;;;0.00;0.00;;;19.80;46.20;;;;;;5052545;28;20713;-57
2023/09/22 06:34:01;;;;;;;0.00;0.00;;;19.80;46.80;;;;;;5052554;28;20191;-58
2023/09/22 06:36:32;;;;;;;0.00;0.00;;;19.80;46.20;;;;;;5032525;28;20196;-58
2023/09/22 06:39:07;;;;;;;0.10;0.10;;;19.80;46.20;;;;;;5037762;28;20211;-58
2023/09/22 06:41:39;;;;;;;0.00;0.00;;;19.80;46.30;;;;;;5052351;28;20215;-58
2023/09/22 06:44:11;;;;;;;0.00;0.00;;;19.70;46.20;;;;;;5052395;28;20237;-57
2023/09/22 06:46:41;;;;;;;0.03;0.03;;;19.70;46.10;;;;;;5051918;28;20197;-58
2023/09/22 06:49:12;;;;;;;0.00;0.00;;;19.70;46.20;;;;;;5052087;28;20670;-57
2023/09/22 06:51:42;;;;;;;0.00;0.00;;;19.70;46.10;;;;;;5052060;28;20222;-57
2023/09/22 06:54:13;;;;;;;0.00;0.00;;;19.70;46.20;;;;;;5051860;28;20191;-58
2023/09/22 06:56:46;;;;;;;0.03;0.03;;;19.70;46.20;;;;;;5052657;28;20192;-58
2023/09/22 06:59:17;;;;;;;0.05;0.05;;;19.70;46.20;;;;;;5056237;28;20225;-58
2023/09/22 07:01:48;;;;;;;0.05;0.05;;;19.70;46.20;;;;;;5051944;28;20216;-57
2023/09/22 07:04:19;;;;;;;0.00;0.00;;;19.60;46.10;;;;;;5051564;28;20192;-58
2023/09/22 07:06:50;;;;;;;0.00;0.00;;;19.60;46.10;;;;;;5052215;28;20199;-57
2023/09/22 07:09:22;;;;;;;0.03;0.03;;;19.60;46.20;;;;;;5050521;28;20245;-57
2023/09/22 07:11:55;;;;;;;0.00;0.00;;;19.60;46.20;;;;;;5051887;28;20227;-58
2023/09/22 07:14:25;;;;;;;0.10;0.10;;;19.60;46.20;;;;;;5051344;28;20195;-58
2023/09/22 07:16:56;;;;;;;0.00;0.00;;;19.60;46.30;;;;;;5051668;28;20195;-57
2023/09/22 07:19:27;;;;;;;0.05;0.05;;;19.60;46.30;;;;;;5051546;28;20584;-58
2023/09/22 07:21:57;;;;;;;0.00;0.00;;;19.60;46.20;;;;;;5051423;28;20691;-58
2023/09/22 07:24:28;;;;;;;0.00;0.00;;;19.50;46.20;;;;;;5054038;28;20190;-57
2023/09/22 07:27:00;;;;;;;0.00;0.00;;;19.50;46.20;;;;;;5071995;28;20199;-57
2023/09/22 07:29:31;;;;;;;0.05;0.05;;;19.50;46.20;;;;;;5072414;28;20599;-58
2023/09/22 07:32:03;;;;;;;0.00;0.00;;;19.50;46.20;;;;;;5044627;28;20212;-58
2023/09/22 07:34:34;;;;;;;0.00;0.00;;;19.50;46.30;;;;;;5035624;28;20204;-57
2023/09/22 07:37:05;;;;;;;0.00;0.00;;;19.50;46.20;;;;;;5051880;28;20614;-58
2023/09/22 07:39:35;;;;;;;0.00;0.00;;;19.50;46.30;;;;;;5051344;28;20223;-58
2023/09/22 07:42:09;;;;;;;0.03;0.03;;;19.50;46.30;;;;;;5050967;28;20226;-58
2023/09/22 07:44:39;;;;;;;0.00;0.00;;;19.40;46.20;;;;;;5049979;28;20274;-58
2023/09/22 07:47:14;;;;;;;0.10;0.10;;;19.40;46.20;;;;;;5051780;28;20600;-58
2023/09/22 07:49:44;;;;;;;0.00;0.00;;;19.40;46.20;;;;;;5051929;28;20616;-57
2023/09/22 07:52:15;;;;;;;0.00;0.00;;;19.40;46.20;;;;;;5051234;28;20219;-58
2023/09/22 07:54:46;;;;;;;0.00;0.00;;;19.40;46.20;;;;;;5050701;28;20207;-58
2023/09/22 07:57:19;;;;;;;0.10;0.10;;;19.40;46.30;;;;;;5051507;28;20655;-58
2023/09/22 07:59:49;;;;;;;0.00;0.00;;;19.30;46.30;;;;;;5051655;28;20226;-58
2023/09/22 08:02:20;;;;;;;0.00;0.00;;;19.40;46.30;;;;;;5051869;28;20223;-58
2023/09/22 08:04:51;;;;;;;0.00;0.00;;;19.30;46.30;;;;;;5051566;28;20199;-58
2023/09/22 08:07:21;;;;;;;0.00;0.00;;;19.40;46.30;;;;;;5051890;28;20210;-58
2023/09/22 08:09:52;;;;;;;0.00;0.00;;;19.30;46.30;;;;;;5050831;28;20218;-57
2023/09/22 08:12:25;;;;;;;0.00;0.00;;;19.30;46.40;;;;;;5051514;28;20258;-58
2023/09/22 08:14:55;;;;;;;0.00;0.00;;;19.30;46.30;;;;;;5050311;28;20210;-58
2023/09/22 08:17:28;;;;;;;0.00;0.00;;;19.30;46.30;;;;;;5051141;28;20245;-58
2023/09/22 08:19:59;;;;;;;0.00;0.00;;;19.30;46.40;;;;;;5054626;28;20222;-58
2023/09/22 08:22:29;;;;;;;0.10;0.10;;;19.20;46.30;;;;;;5054715;28;20222;-58
2023/09/22 08:25:00;;;;;;;0.10;0.10;;;19.20;46.30;;;;;;5055158;28;20655;-58
2023/09/22 08:27:32;;;;;;;0.00;0.00;;;19.20;46.30;;;;;;5055071;28;20207;-58
2023/09/22 08:30:09;;;;;;;0.00;0.00;;;19.20;46.30;;;;;;5055577;28;20196;-58
2023/09/22 08:32:41;;;;;;;0.00;0.00;;;19.20;46.30;;;;;;5055068;28;20550;-58
2023/09/22 08:35:13;;;;;;;0.00;0.00;;;19.20;46.30;;;;;;5055253;28;20286;-58
2023/09/22 08:37:44;;;;;;;0.00;0.00;;;19.20;46.30;;;;;;5053880;28;20200;-58
2023/09/22 08:40:16;;;;;;;0.00;0.00;;;19.20;46.30;;;;;;5054452;28;20223;-58
2023/09/22 08:42:51;;;;;;;0.00;0.00;;;19.10;46.30;;;;;;5055074;28;20199;-58
2023/09/22 08:45:22;;;;;;;0.00;0.00;;;19.10;46.30;;;;;;5055347;28;20290;-58
2023/09/22 08:47:53;;;;;;;0.10;0.10;;;19.10;46.30;;;;;;5054906;28;20235;-58
2023/09/22 08:50:23;;;;;;;0.00;0.00;;;19.10;46.30;;;;;;5054786;28;20220;-58
2023/09/22 08:52:54;;;;;;;0.00;0.00;;;19.10;46.40;;;;;;5054432;28;20195;-58
2023/09/22 08:55:26;;;;;;;0.00;0.00;;;19.10;46.40;;;;;;5054745;28;20195;-58
2023/09/22 08:57:59;;;;;;;0.00;0.00;;;19.10;46.40;;;;;;5054970;28;20203;-58
2023/09/22 09:00:30;;;;;;;0.00;0.00;;;19.10;46.40;;;;;;5054088;28;20227;-58
2023/09/22 09:03:09;;;;;;;0.00;0.00;;;19.00;46.40;;;;;;5054406;28;20565;-58
2023/09/22 09:05:41;;;;;;;0.00;0.00;;;19.00;46.30;;;;;;5054797;28;20206;-58
2023/09/22 09:08:15;;;;;;;0.03;0.03;;;19.00;46.40;;;;;;5054235;28;20639;-58
2023/09/22 09:10:47;;;;;;;0.00;0.00;;;19.00;46.40;;;;;;5054324;28;20219;-58
2023/09/22 09:13:23;;;;;;;0.00;0.00;;;19.00;46.40;;;;;;5053975;28;20237;-57
2023/09/22 09:15:57;;;;;;;0.10;0.10;;;19.00;46.40;;;;;;5054032;28;20249;-58
2023/09/22 09:18:29;;;;;;;0.00;0.00;;;19.00;46.40;;;;;;5054121;28;20257;-58
2023/09/22 09:21:12;;;;;;;0.00;0.00;;;19.00;46.40;;;;;;5053523;28;20683;-57
2023/09/22 09:23:55;;;;;;;0.00;0.00;;;18.90;46.40;;;;;;5053379;28;20632;-57
2023/09/22 09:26:31;;;;;;;0.00;0.00;;;18.90;46.40;;;;;;5053713;28;20446;-57
2023/09/22 09:29:03;;;;;;;0.10;0.10;;;18.90;46.40;;;;;;5052453;28;21046;-57
2023/09/22 09:31:47;;;;;;;0.10;0.10;;;18.90;46.40;;;;;;5052680;28;20690;-55
2023/09/22 09:34:18;;;;;;;0.00;0.00;;;18.90;46.40;;;;;;5053958;28;20242;-57
2023/09/22 09:36:49;;;;;;;0.03;0.03;;;18.90;46.50;;;;;;5054027;28;20199;-58
2023/09/22 09:39:20;;;;;;;0.00;0.00;;;18.90;46.50;;;;;;5048575;28;20432;-57
2023/09/22 09:41:51;;;;;;;0.00;0.00;;;18.90;46.50;;;;;;5034126;28;20220;-57
2023/09/22 09:44:27;;;;;;;0.00;0.00;;;18.90;46.50;;;;;;5037782;28;20687;-57
2023/09/22 09:46:58;;;;;;;0.00;0.00;;;18.80;46.50;;;;;;5053752;28;20410;-58
2023/09/22 09:49:29;;;;;;;0.03;0.03;;;18.80;46.60;;;;;;5053943;28;20210;-53
2023/09/22 09:51:59;;;;;;;0.00;0.00;;;18.80;46.70;;;;;;5053662;28;20215;-55
2023/09/22 09:54:31;;;;;;;0.10;0.10;;;18.80;46.70;;;;;;5053884;28;20195;-56
2023/09/22 09:57:04;;;;;;;0.00;0.00;;;18.80;46.70;;;;;;5049614;28;20203;-56
2023/09/22 09:59:38;;;;;;;0.00;0.00;;;18.80;46.60;;;;;;5052974;28;20207;-57
2023/09/22 10:02:09;;;;;;;0.00;0.00;;;18.80;46.70;;;;;;5053044;28;20215;-57
2023/09/22 10:04:40;;;;;;;0.00;0.00;;;18.80;46.70;;;;;;5052385;28;20200;-52
2023/09/22 10:07:11;;;;;;;0.10;0.10;;;18.80;46.70;;;;;;5069301;22;20559;-46
2023/09/22 10:09:42;;;;;;;0.00;0.00;;;18.70;46.60;;;;;;5072094;28;20199;-46
2023/09/22 10:12:13;;;;;;;0.00;0.00;;;18.80;46.70;;;;;;5073068;28;20214;-47
2023/09/22 10:14:51;;;;;;;0.10;0.10;;;18.70;47.20;;;;;;5067464;28;20275;-46
2023/09/22 10:17:25;;;;;;;0.00;0.00;;;18.70;46.60;;;;;;5065347;28;20210;-46
2023/09/22 10:19:56;;;;;;;0.00;0.00;;;18.70;46.60;;;;;;5072172;28;20222;-46
2023/09/22 10:22:28;;;;;;;0.05;0.05;;;18.70;46.60;;;;;;5072130;28;20202;-46
2023/09/22 10:25:25;;;;;;;0.00;0.00;;;18.70;46.70;;;;;;5072754;28;20199;-46
2023/09/22 10:28:00;;;;;;;0.00;0.00;;;18.70;46.70;;;;;;5072475;28;20187;-47
2023/09/22 10:31:06;;;;;;;0.00;0.00;;;18.60;46.60;;;;;;5072976;28;20225;-47
2023/09/22 10:33:36;;;;;;;0.00;0.00;;;18.60;46.60;;;;;;5051776;28;20644;-45
2023/09/22 10:36:08;;;;;;;0.10;0.10;;;18.60;46.60;;;;;;5069060;28;20554;-46
2023/09/22 10:38:58;;;;;;;0.00;0.00;;;18.60;46.60;;;;;;5072196;28;20190;-47
2023/09/22 10:41:29;;;;;;;0.00;0.00;;;18.60;46.70;;;;;;5071500;28;20296;-46
2023/09/22 10:44:01;;;;;;;0.00;0.00;;;18.60;46.60;;;;;;5071551;28;20674;-47
2023/09/22 10:46:34;;;;;;;0.00;0.00;;;18.60;46.70;;;;;;5071589;28;20274;-47
2023/09/22 10:49:05;;;;;;;0.00;0.00;;;18.50;46.60;;;;;;5071218;28;20194;-46
2023/09/22 10:51:47;;;;;;;0.00;0.00;;;18.50;46.70;;;;;;5072347;28;20218;-48
2023/09/22 10:54:18;;;;;;;0.10;0.10;;;18.50;46.70;;;;;;5071874;28;20693;-48
2023/09/22 10:56:48;;;;;;;0.00;0.00;;;18.50;46.70;;;;;;5071066;28;20194;-49
2023/09/22 10:59:19;;;;;;;0.00;0.00;;;18.50;46.70;;;;;;5072101;28;20277;-46
2023/09/22 11:01:52;;;;;;;0.00;0.00;;;18.50;46.70;;;;;;5070675;28;20223;-46
2023/09/22 11:04:41;;;;;;;0.00;0.00;;;18.50;46.70;;;;;;5071603;28;20210;-47
2023/09/22 11:07:12;;;;;;;0.00;0.00;;;18.50;46.60;;;;;;5083583;22;20231;-56
2023/09/22 11:09:43;;;;;;;0.00;0.00;;;18.50;46.60;;;;;;5070997;28;20198;-55
2023/09/22 11:12:15;;;;;;;0.08;0.08;;;18.40;46.60;;;;;;5070945;28;20206;-56
2023/09/22 11:14:46;;;;;;;0.10;0.10;;;18.40;46.60;;;;;;5071338;28;20202;-52
2023/09/22 11:17:18;;;;;;;0.10;0.10;;;18.40;46.60;;;;;;5068862;28;20194;-55
2023/09/22 11:19:58;;;;;;;0.05;0.05;;;18.40;46.60;;;;;;5071824;28;20194;-56
2023/09/22 11:22:34;;;;;;;0.00;0.00;;;18.40;46.70;;;;;;5071155;28;20187;-55
2023/09/22 11:25:05;;;;;;;0.03;0.03;;;18.40;46.70;;;;;;5071528;28;20194;-57
2023/09/22 11:27:43;;;;;;;0.10;0.10;;;18.40;46.70;;;;;;5071596;28;20206;-57
2023/09/22 11:30:16;;;;;;;0.00;0.00;;;18.40;46.70;;;;;;5071174;28;20530;-56
2023/09/22 11:32:49;;;;;;;0.10;0.10;;;18.40;46.70;;;;;;5070845;28;20217;-54
2023/09/22 11:35:37;;;;;;;0.00;0.00;;;18.30;46.60;;;;;;5071046;28;20334;-55
2023/09/22 11:38:28;;;;;;;0.10;0.10;;;18.30;46.70;;;;;;5070457;28;20195;-54
2023/09/22 11:41:12;;;;;;;0.08;0.08;;;18.30;46.60;;;;;;5070246;28;20254;-57
2023/09/22 11:43:46;;;;;;;0.00;0.00;;;18.30;46.60;;;;;;5070442;28;20232;-58
2023/09/22 11:46:18;;;;;;;0.00;0.00;;;18.30;46.60;;;;;;5070257;28;20190;-57
2023/09/22 11:49:02;;;;;;;0.10;0.10;;;18.30;46.60;;;;;;5071151;28;20643;-56
2023/09/22 11:51:47;;;;;;;0.05;0.05;;;18.30;46.60;;;;;;5070546;28;20215;-54
2023/09/22 11:54:19;;;;;;;0.10;0.10;;;18.30;46.60;;;;;;5070400;28;20198;-57
2023/09/22 11:56:50;;;;;;;0.10;0.10;;;18.20;46.60;;;;;;5070930;28;20190;-55
2023/09/22 11:59:23;;;;;;;0.00;0.00;;;18.20;46.60;;;;;;5071067;28;20195;-56
2023/09/22 12:01:54;;;;;;;0.10;0.10;;;18.20;46.60;;;;;;5070444;28;20227;-53
2023/09/22 12:04:27;;;;;;;0.10;0.10;;;18.20;46.70;;;;;;5071043;28;20201;-53
2023/09/22 12:06:58;;;;;;;0.10;0.10;;;18.20;46.60;;;;;;5072092;28;20195;-56
2023/09/22 12:09:29;;;;;;;0.00;0.00;;;18.20;46.70;;;;;;5071357;28;20214;-56
2023/09/22 12:11:59;;;;;;;0.00;0.00;;;18.20;46.70;;;;;;5071309;28;20219;-56
2023/09/22 12:14:30;;;;;;;0.00;0.00;;;18.10;46.70;;;;;;5071401;28;20195;-56
2023/09/22 12:17:01;;;;;;;0.00;0.00;;;18.10;46.60;;;;;;5071380;28;20204;-59
2023/09/22 12:19:33;;;;;;;0.00;0.00;;;18.10;46.80;;;;;;5071256;28;20674;-57
2023/09/22 12:22:04;;;;;;;0.00;0.00;;;18.10;46.70;;;;;;5071231;28;20594;-57
2023/09/22 12:24:35;;;;;;;0.00;0.00;;;18.10;46.60;;;;;;5071724;28;20199;-57
2023/09/22 12:27:07;;;;;;;0.00;0.00;;;18.10;46.60;;;;;;5070890;28;20206;-55
2023/09/22 12:29:38;;;;;;;0.00;0.00;;;18.10;46.60;;;;;;5070593;28;20659;-57
2023/09/22 12:32:10;;;;;;;0.10;0.10;;;18.10;46.60;;;;;;5070580;28;20758;-58
2023/09/22 12:34:42;;;;;;;0.10;0.10;;;18.10;46.60;;;;;;5071147;28;20289;-57
2023/09/22 12:37:13;;;;;;;0.10;0.10;;;18.00;46.60;;;;;;5071131;28;20195;-58
2023/09/22 12:39:44;;;;;;;0.00;0.00;;;18.00;46.50;;;;;;5071069;28;20720;-57
2023/09/22 12:42:16;;;;;;;0.00;0.00;;;18.00;46.60;;;;;;5070624;28;20742;-54
2023/09/22 12:44:46;;;;;;;0.10;0.10;;;18.00;46.60;;;;;;5070774;28;20194;-55
2023/09/22 12:47:17;;;;;;;0.00;0.00;;;18.00;46.60;;;;;;5070984;28;20632;-54
2023/09/22 12:49:50;;;;;;;0.05;0.05;;;18.00;46.60;;;;;;5071478;28;20198;-54
2023/09/22 12:52:20;;;;;;;0.03;0.03;;;18.00;46.60;;;;;;5071341;28;20755;-52
2023/09/22 12:54:52;;;;;;;0.00;0.00;;;18.00;46.60;;;;;;5071069;28;20199;-55
2023/09/22 12:57:22;;;;;;;0.10;0.10;;;17.90;46.60;;;;;;5070961;28;20195;-56
2023/09/22 12:59:53;;;;;;;0.00;0.00;;;18.00;46.70;;;;;;5070860;28;20202;-58
2023/09/22 13:02:23;;;;;;;0.05;0.05;;;17.90;46.60;;;;;;5070424;28;20697;-57
2023/09/22 13:04:57;;;;;;;0.03;0.03;;;17.90;46.70;;;;;;5071855;28;20203;-56
2023/09/22 13:07:27;;;;;;;0.00;0.00;;;17.90;46.60;;;;;;5074278;28;20288;-57
2023/09/22 13:09:59;;;;;;;0.00;0.00;;;17.90;46.60;;;;;;5074369;28;20191;-52
2023/09/22 13:12:29;;;;;;;0.00;0.00;;;17.90;46.60;;;;;;5074230;28;20209;-56